sensor_id;sensor_type;location;lat;lon;timestamp;pressure;altitude;pressure_sealevel;temperature;humidity
26043;BME280;13818;52.156;5.382;2023-05-29T00:01:21;102177.47;;;11.39;100.00
26043;BME280;13818;52.156;5.382;2023-05-29T00:03:49;102192.75;;;11.34;100.00
26043;BME280;13818;52.156;5.382;2023-05-29T00:06:16;102176.16;;;11.23;100.00
26043;BME280;13818;52.156;5.382;2023-05-29T00:08:44;102182.41;;;11.22;100.00
26043;BME280;13818;52.156;5.382;2023-05-29T00:11:11;102179.72;;;11.23;100.00
26043;BME280;13818;52.156;5.382;2023-05-29T00:13:40;102177.84;;;11.27;100.00
26043;BME280;13818;52.156;5.382;2023-05-29T00:16:07;102173.47;;;11.23;100.00
26043;BME280;13818;52.156;5.382;2023-05-29T00:18:34;102171.06;;;11.14;100.00
26043;BME280;13818;52.156;5.382;2023-05-29T00:21:01;102175.41;;;11.18;100.00
26043;BME280;13818;52.156;5.382;2023-05-29T00:23:28;102167.63;;;11.10;100.00
26043;BME280;13818;52.156;5.382;2023-05-29T00:25:54;102169.47;;;11.06;100.00
26043;BME280;13818;52.156;5.382;2023-05-29T00:28:21;102170.22;;;11.12;100.00
26043;BME280;13818;52.156;5.382;2023-05-29T00:30:49;102170.53;;;11.01;100.00
26043;BME280;13818;52.156;5.382;2023-05-29T00:33:15;102177.75;;;10.97;100.00
26043;BME280;13818;52.156;5.382;2023-05-29T00:35:43;102177.41;;;11.10;100.00
26043;BME280;13818;52.156;5.382;2023-05-29T00:38:10;102183.63;;;11.10;100.00
26043;BME280;13818;52.156;5.382;2023-05-29T00:40:36;102184.69;;;11.03;100.00
26043;BME280;13818;52.156;5.382;2023-05-29T00:43:03;102179.50;;;10.98;100.00
26043;BME280;13818;52.156;5.382;2023-05-29T00:45:29;102192.84;;;10.97;100.00
26043;BME280;13818;52.156;5.382;2023-05-29T00:47:58;102199.88;;;11.01;100.00
26043;BME280;13818;52.156;5.382;2023-05-29T00:50:25;102201.56;;;11.05;100.00
26043;BME280;13818;52.156;5.382;2023-05-29T00:52:52;102199.88;;;11.01;100.00
26043;BME280;13818;52.156;5.382;2023-05-29T00:55:20;102201.44;;;11.10;100.00
26043;BME280;13818;52.156;5.382;2023-05-29T00:57:47;102209.41;;;11.11;100.00
26043;BME280;13818;52.156;5.382;2023-05-29T01:00:15;102196.22;;;11.05;100.00
26043;BME280;13818;52.156;5.382;2023-05-29T01:02:43;102206.03;;;11.04;100.00
26043;BME280;13818;52.156;5.382;2023-05-29T01:05:14;102194.34;;;11.09;100.00
26043;BME280;13818;52.156;5.382;2023-05-29T01:07:42;102188.97;;;11.10;100.00
26043;BME280;13818;52.156;5.382;2023-05-29T01:10:10;102189.06;;;11.05;100.00
26043;BME280;13818;52.156;5.382;2023-05-29T01:12:40;102196.72;;;10.85;100.00
26043;BME280;13818;52.156;5.382;2023-05-29T01:15:20;102198.38;;;10.90;100.00
26043;BME280;13818;52.156;5.382;2023-05-29T01:17:58;102206.19;;;10.97;100.00
26043;BME280;13818;52.156;5.382;2023-05-29T01:20:33;102208.00;;;10.96;100.00
26043;BME280;13818;52.156;5.382;2023-05-29T01:23:27;102211.53;;;10.97;100.00
26043;BME280;13818;52.156;5.382;2023-05-29T01:26:11;102221.25;;;10.99;100.00
26043;BME280;13818;52.156;5.382;2023-05-29T01:28:45;102222.28;;;10.94;100.00
26043;BME280;13818;52.156;5.382;2023-05-29T01:31:14;102226.72;;;10.95;100.00
26043;BME280;13818;52.156;5.382;2023-05-29T01:33:51;102218.72;;;10.95;100.00
26043;BME280;13818;52.156;5.382;2023-05-29T01:36:19;102235.59;;;10.95;100.00
26043;BME280;13818;52.156;5.382;2023-05-29T01:38:46;102233.00;;;10.92;100.00
26043;BME280;13818;52.156;5.382;2023-05-29T01:41:14;102236.66;;;10.88;100.00
26043;BME280;13818;52.156;5.382;2023-05-29T01:43:43;102235.88;;;10.84;100.00
26043;BME280;13818;52.156;5.382;2023-05-29T01:46:10;102252.78;;;10.83;100.00
26043;BME280;13818;52.156;5.382;2023-05-29T01:48:37;102234.16;;;10.82;100.00
26043;BME280;13818;52.156;5.382;2023-05-29T01:51:03;102247.50;;;10.82;100.00
26043;BME280;13818;52.156;5.382;2023-05-29T01:53:30;102247.66;;;10.76;100.00
26043;BME280;13818;52.156;5.382;2023-05-29T01:55:57;102252.25;;;10.69;100.00
26043;BME280;13818;52.156;5.382;2023-05-29T01:58:25;102258.34;;;10.74;100.00
26043;BME280;13818;52.156;5.382;2023-05-29T02:00:53;102263.66;;;10.74;100.00
26043;BME280;13818;52.156;5.382;2023-05-29T02:03:22;102260.09;;;10.75;100.00
26043;BME280;13818;52.156;5.382;2023-05-29T02:05:49;102261.00;;;10.74;100.00
26043;BME280;13818;52.156;5.382;2023-05-29T02:08:19;102262.81;;;10.73;100.00
26043;BME280;13818;52.156;5.382;2023-05-29T02:10:45;102257.56;;;10.69;100.00
26043;BME280;13818;52.156;5.382;2023-05-29T02:13:13;102256.81;;;10.64;100.00
26043;BME280;13818;52.156;5.382;2023-05-29T02:15:39;102252.56;;;10.56;100.00
26043;BME280;13818;52.156;5.382;2023-05-29T02:18:09;102248.03;;;10.58;100.00
26043;BME280;13818;52.156;5.382;2023-05-29T02:20:42;102240.84;;;10.62;100.00
26043;BME280;13818;52.156;5.382;2023-05-29T02:23:09;102238.13;;;10.64;100.00
26043;BME280;13818;52.156;5.382;2023-05-29T02:25:36;102246.28;;;10.57;100.00
26043;BME280;13818;52.156;5.382;2023-05-29T02:28:04;102249.75;;;10.61;100.00
26043;BME280;13818;52.156;5.382;2023-05-29T02:30:34;102248.94;;;10.57;100.00
26043;BME280;13818;52.156;5.382;2023-05-29T02:33:02;102247.22;;;10.55;100.00
26043;BME280;13818;52.156;5.382;2023-05-29T02:35:30;102249.13;;;10.50;100.00
26043;BME280;13818;52.156;5.382;2023-05-29T02:37:57;102251.03;;;10.45;100.00
26043;BME280;13818;52.156;5.382;2023-05-29T02:40:24;102253.69;;;10.45;100.00
26043;BME280;13818;52.156;5.382;2023-05-29T02:42:50;102252.94;;;10.39;100.00
26043;BME280;13818;52.156;5.382;2023-05-29T02:45:17;102259.22;;;10.34;100.00
26043;BME280;13818;52.156;5.382;2023-05-29T02:47:44;102253.97;;;10.31;100.00
26043;BME280;13818;52.156;5.382;2023-05-29T02:50:10;102254.06;;;10.28;100.00
26043;BME280;13818;52.156;5.382;2023-05-29T02:52:41;102255.66;;;10.35;100.00
26043;BME280;13818;52.156;5.382;2023-05-29T02:55:09;102242.47;;;10.30;100.00
26043;BME280;13818;52.156;5.382;2023-05-29T02:57:35;102250.38;;;10.33;100.00
26043;BME280;13818;52.156;5.382;2023-05-29T03:00:02;102257.50;;;10.31;100.00
26043;BME280;13818;52.156;5.382;2023-05-29T03:02:31;102252.34;;;10.25;100.00
26043;BME280;13818;52.156;5.382;2023-05-29T03:04:58;102260.34;;;10.23;100.00
26043;BME280;13818;52.156;5.382;2023-05-29T03:07:25;102252.34;;;10.25;100.00
26043;BME280;13818;52.156;5.382;2023-05-29T03:09:53;102258.41;;;10.32;100.00
26043;BME280;13818;52.156;5.382;2023-05-29T03:12:20;102258.44;;;10.30;100.00
26043;BME280;13818;52.156;5.382;2023-05-29T03:14:48;102264.84;;;10.21;100.00
26043;BME280;13818;52.156;5.382;2023-05-29T03:17:19;102249.81;;;10.17;100.00
26043;BME280;13818;52.156;5.382;2023-05-29T03:19:45;102250.75;;;10.16;100.00
26043;BME280;13818;52.156;5.382;2023-05-29T03:22:12;102248.97;;;10.17;100.00
26043;BME280;13818;52.156;5.382;2023-05-29T03:24:39;102248.09;;;10.16;100.00
26043;BME280;13818;52.156;5.382;2023-05-29T03:27:07;102246.44;;;10.10;100.00
26043;BME280;13818;52.156;5.382;2023-05-29T03:29:33;102259.72;;;10.12;100.00
26043;BME280;13818;52.156;5.382;2023-05-29T03:32:00;102253.25;;;10.22;100.00
26043;BME280;13818;52.156;5.382;2023-05-29T03:34:28;102251.53;;;10.21;100.00
26043;BME280;13818;52.156;5.382;2023-05-29T03:36:55;102258.59;;;10.22;100.00
26043;BME280;13818;52.156;5.382;2023-05-29T03:39:22;102247.28;;;10.13;100.00
26043;BME280;13818;52.156;5.382;2023-05-29T03:41:48;102244.72;;;10.08;100.00
26043;BME280;13818;52.156;5.382;2023-05-29T03:44:17;102243.72;;;10.14;100.00
26043;BME280;13818;52.156;5.382;2023-05-29T03:46:45;102258.63;;;10.21;100.00
26043;BME280;13818;52.156;5.382;2023-05-29T03:49:11;102247.94;;;10.22;100.00
26043;BME280;13818;52.156;5.382;2023-05-29T03:51:38;102252.25;;;10.28;100.00
26043;BME280;13818;52.156;5.382;2023-05-29T03:54:04;102246.84;;;10.33;100.00
26043;BME280;13818;52.156;5.382;2023-05-29T03:56:32;102257.34;;;10.40;100.00
26043;BME280;13818;52.156;5.382;2023-05-29T03:59:00;102258.97;;;10.48;100.00
26043;BME280;13818;52.156;5.382;2023-05-29T04:01:28;102262.28;;;10.57;100.00
26043;BME280;13818;52.156;5.382;2023-05-29T04:03:54;102261.09;;;10.71;100.00
26043;BME280;13818;52.156;5.382;2023-05-29T04:06:21;102259.84;;;10.86;100.00
26043;BME280;13818;52.156;5.382;2023-05-29T04:08:48;102269.47;;;10.91;100.00
26043;BME280;13818;52.156;5.382;2023-05-29T04:11:15;102274.25;;;11.15;100.00
26043;BME280;13818;52.156;5.382;2023-05-29T04:13:42;102263.03;;;11.35;100.00
26043;BME280;13818;52.156;5.382;2023-05-29T04:16:08;102260.97;;;11.45;100.00
26043;BME280;13818;52.156;5.382;2023-05-29T04:18:36;102262.25;;;11.64;100.00
26043;BME280;13818;52.156;5.382;2023-05-29T04:21:03;102275.19;;;11.78;100.00
26043;BME280;13818;52.156;5.382;2023-05-29T04:23:29;102279.41;;;12.18;100.00
26043;BME280;13818;52.156;5.382;2023-05-29T04:25:57;102270.75;;;12.40;100.00
26043;BME280;13818;52.156;5.382;2023-05-29T04:28:26;102280.94;;;12.56;100.00
26043;BME280;13818;52.156;5.382;2023-05-29T04:30:53;102275.00;;;12.74;100.00
26043;BME280;13818;52.156;5.382;2023-05-29T04:33:21;102281.28;;;13.01;100.00
26043;BME280;13818;52.156;5.382;2023-05-29T04:35:49;102290.44;;;13.48;100.00
26043;BME280;13818;52.156;5.382;2023-05-29T04:38:16;102292.44;;;13.66;100.00
26043;BME280;13818;52.156;5.382;2023-05-29T04:40:44;102294.06;;;14.20;100.00
26043;BME280;13818;52.156;5.382;2023-05-29T04:43:10;102297.09;;;14.34;100.00
26043;BME280;13818;52.156;5.382;2023-05-29T04:45:37;102305.34;;;14.75;100.00
26043;BME280;13818;52.156;5.382;2023-05-29T04:48:04;102307.16;;;15.18;100.00
26043;BME280;13818;52.156;5.382;2023-05-29T04:50:30;102308.81;;;15.00;100.00
26043;BME280;13818;52.156;5.382;2023-05-29T04:52:58;102300.75;;;15.42;100.00
26043;BME280;13818;52.156;5.382;2023-05-29T04:55:25;102297.97;;;15.23;100.00
26043;BME280;13818;52.156;5.382;2023-05-29T04:57:52;102294.97;;;15.31;100.00
26043;BME280;13818;52.156;5.382;2023-05-29T05:00:19;102294.22;;;15.48;100.00
26043;BME280;13818;52.156;5.382;2023-05-29T05:02:46;102307.25;;;15.99;100.00
26043;BME280;13818;52.156;5.382;2023-05-29T05:05:13;102304.78;;;15.94;100.00
26043;BME280;13818;52.156;5.382;2023-05-29T05:07:39;102308.47;;;15.91;100.00
26043;BME280;13818;52.156;5.382;2023-05-29T05:10:08;102316.78;;;16.06;100.00
26043;BME280;13818;52.156;5.382;2023-05-29T05:12:34;102320.88;;;16.72;100.00
26043;BME280;13818;52.156;5.382;2023-05-29T05:15:03;102314.72;;;17.42;100.00
26043;BME280;13818;52.156;5.382;2023-05-29T05:17:30;102311.22;;;17.57;100.00
26043;BME280;13818;52.156;5.382;2023-05-29T05:19:57;102317.84;;;17.85;100.00
26043;BME280;13818;52.156;5.382;2023-05-29T05:22:23;102311.41;;;17.87;99.74
26043;BME280;13818;52.156;5.382;2023-05-29T05:24:51;102317.41;;;17.94;97.95
26043;BME280;13818;52.156;5.382;2023-05-29T05:27:21;102320.00;;;18.61;94.77
26043;BME280;13818;52.156;5.382;2023-05-29T05:29:48;102319.66;;;18.67;91.58
26043;BME280;13818;52.156;5.382;2023-05-29T05:32:15;102324.75;;;19.20;90.72
26043;BME280;13818;52.156;5.382;2023-05-29T05:34:41;102315.84;;;18.06;95.09
26043;BME280;13818;52.156;5.382;2023-05-29T05:37:08;102324.97;;;19.01;89.55
26043;BME280;13818;52.156;5.382;2023-05-29T05:39:35;102322.25;;;18.53;92.48
26043;BME280;13818;52.156;5.382;2023-05-29T05:42:01;102328.13;;;18.61;92.70
26043;BME280;13818;52.156;5.382;2023-05-29T05:44:29;102322.53;;;18.32;93.18
26043;BME280;13818;52.156;5.382;2023-05-29T05:46:56;102311.06;;;18.11;94.11
26043;BME280;13818;52.156;5.382;2023-05-29T05:49:22;102335.94;;;19.14;90.55
26043;BME280;13818;52.156;5.382;2023-05-29T05:51:49;102324.16;;;19.15;87.56
26043;BME280;13818;52.156;5.382;2023-05-29T05:54:15;102331.19;;;19.78;82.43
26043;BME280;13818;52.156;5.382;2023-05-29T05:56:42;102352.16;;;18.50;84.11
26043;BME280;13818;52.156;5.382;2023-05-29T05:59:08;102335.34;;;18.93;83.71
26043;BME280;13818;52.156;5.382;2023-05-29T06:01:36;102332.19;;;18.36;86.90
26043;BME280;13818;52.156;5.382;2023-05-29T06:04:04;102338.47;;;16.98;90.81
26043;BME280;13818;52.156;5.382;2023-05-29T06:06:30;102328.59;;;16.41;100.00
26043;BME280;13818;52.156;5.382;2023-05-29T06:08:57;102337.59;;;16.79;98.09
26043;BME280;13818;52.156;5.382;2023-05-29T06:11:24;102332.66;;;16.69;96.97
26043;BME280;13818;52.156;5.382;2023-05-29T06:13:51;102336.19;;;17.08;95.04
26043;BME280;13818;52.156;5.382;2023-05-29T06:16:18;102323.06;;;16.64;97.41
26043;BME280;13818;52.156;5.382;2023-05-29T06:18:46;102335.97;;;17.30;94.72
26043;BME280;13818;52.156;5.382;2023-05-29T06:21:12;102351.47;;;18.13;87.65
26043;BME280;13818;52.156;5.382;2023-05-29T06:23:39;102342.03;;;16.80;88.05
26043;BME280;13818;52.156;5.382;2023-05-29T06:26:06;102327.91;;;16.94;90.09
26043;BME280;13818;52.156;5.382;2023-05-29T06:28:33;102335.84;;;16.78;93.11
26043;BME280;13818;52.156;5.382;2023-05-29T06:31:00;102334.03;;;16.21;94.43
26043;BME280;13818;52.156;5.382;2023-05-29T06:33:26;102331.13;;;15.65;98.45
26043;BME280;13818;52.156;5.382;2023-05-29T06:35:54;102327.47;;;16.84;93.76
26043;BME280;13818;52.156;5.382;2023-05-29T06:38:20;102339.84;;;17.95;86.39
26043;BME280;13818;52.156;5.382;2023-05-29T06:40:47;102357.38;;;18.03;79.94
26043;BME280;13818;52.156;5.382;2023-05-29T06:43:13;102341.50;;;17.62;82.92
26043;BME280;13818;52.156;5.382;2023-05-29T06:45:40;102344.63;;;17.00;85.44
26043;BME280;13818;52.156;5.382;2023-05-29T06:48:06;102344.13;;;17.64;82.99
26043;BME280;13818;52.156;5.382;2023-05-29T06:50:33;102348.50;;;17.66;83.24
26043;BME280;13818;52.156;5.382;2023-05-29T06:53:01;102354.34;;;17.75;82.44
26043;BME280;13818;52.156;5.382;2023-05-29T06:55:28;102360.66;;;18.58;80.61
26043;BME280;13818;52.156;5.382;2023-05-29T06:57:54;102345.56;;;19.64;74.00
26043;BME280;13818;52.156;5.382;2023-05-29T07:00:21;102359.25;;;19.61;71.18
26043;BME280;13818;52.156;5.382;2023-05-29T07:02:48;102364.63;;;19.92;68.77
26043;BME280;13818;52.156;5.382;2023-05-29T07:05:16;102373.94;;;19.11;70.40
26043;BME280;13818;52.156;5.382;2023-05-29T07:07:42;102382.47;;;18.55;70.91
26043;BME280;13818;52.156;5.382;2023-05-29T07:10:11;102369.53;;;18.44;73.72
26043;BME280;13818;52.156;5.382;2023-05-29T07:12:37;102383.34;;;18.72;72.21
26043;BME280;13818;52.156;5.382;2023-05-29T07:15:04;102361.94;;;19.00;71.73
26043;BME280;13818;52.156;5.382;2023-05-29T07:17:31;102362.94;;;18.82;71.57
26043;BME280;13818;52.156;5.382;2023-05-29T07:19:57;102383.72;;;20.05;67.59
26043;BME280;13818;52.156;5.382;2023-05-29T07:22:24;102380.50;;;20.56;64.16
26043;BME280;13818;52.156;5.382;2023-05-29T07:24:50;102374.25;;;20.26;64.19
26043;BME280;13818;52.156;5.382;2023-05-29T07:27:18;102391.03;;;20.89;61.18
26043;BME280;13818;52.156;5.382;2023-05-29T07:29:45;102377.56;;;20.88;61.20
26043;BME280;13818;52.156;5.382;2023-05-29T07:32:11;102394.06;;;20.12;62.56
26043;BME280;13818;52.156;5.382;2023-05-29T07:34:38;102371.69;;;20.52;61.65
26043;BME280;13818;52.156;5.382;2023-05-29T07:37:06;102362.13;;;20.32;61.88
26043;BME280;13818;52.156;5.382;2023-05-29T07:39:34;102376.94;;;19.97;64.10
26043;BME280;13818;52.156;5.382;2023-05-29T07:42:01;102376.38;;;19.76;63.35
26043;BME280;13818;52.156;5.382;2023-05-29T07:44:29;102373.16;;;20.00;63.68
26043;BME280;13818;52.156;5.382;2023-05-29T07:46:56;102380.03;;;20.20;62.27
26043;BME280;13818;52.156;5.382;2023-05-29T07:49:23;102369.41;;;21.02;60.39
26043;BME280;13818;52.156;5.382;2023-05-29T07:51:50;102367.38;;;21.46;58.86
26043;BME280;13818;52.156;5.382;2023-05-29T07:54:16;102383.91;;;21.28;58.34
26043;BME280;13818;52.156;5.382;2023-05-29T07:56:45;102373.88;;;21.84;56.31
26043;BME280;13818;52.156;5.382;2023-05-29T07:59:12;102379.19;;;21.85;56.51
26043;BME280;13818;52.156;5.382;2023-05-29T08:01:40;102374.50;;;20.79;57.63
26043;BME280;13818;52.156;5.382;2023-05-29T08:04:07;102378.00;;;19.64;62.07
26043;BME280;13818;52.156;5.382;2023-05-29T08:06:34;102369.94;;;20.65;60.35
26043;BME280;13818;52.156;5.382;2023-05-29T08:09:01;102395.00;;;20.55;59.53
26043;BME280;13818;52.156;5.382;2023-05-29T08:11:28;102379.22;;;19.89;60.41
26043;BME280;13818;52.156;5.382;2023-05-29T08:13:55;102374.72;;;20.19;60.78
26043;BME280;13818;52.156;5.382;2023-05-29T08:16:21;102379.44;;;19.86;61.58
26043;BME280;13818;52.156;5.382;2023-05-29T08:18:49;102383.88;;;20.45;61.14
26043;BME280;13818;52.156;5.382;2023-05-29T08:21:16;102377.69;;;21.13;59.10
26043;BME280;13818;52.156;5.382;2023-05-29T08:23:42;102385.75;;;20.59;60.01
26043;BME280;13818;52.156;5.382;2023-05-29T08:26:09;102381.19;;;20.59;61.21
26043;BME280;13818;52.156;5.382;2023-05-29T08:28:35;102382.53;;;20.52;59.44
26043;BME280;13818;52.156;5.382;2023-05-29T08:31:02;102385.91;;;21.12;58.32
26043;BME280;13818;52.156;5.382;2023-05-29T08:33:29;102384.00;;;20.43;58.89
26043;BME280;13818;52.156;5.382;2023-05-29T08:35:58;102381.78;;;20.50;58.99
26043;BME280;13818;52.156;5.382;2023-05-29T08:38:24;102389.19;;;19.89;60.13
26043;BME280;13818;52.156;5.382;2023-05-29T08:40:51;102384.53;;;19.30;61.65
26043;BME280;13818;52.156;5.382;2023-05-29T08:43:21;102383.03;;;18.94;64.07
26043;BME280;13818;52.156;5.382;2023-05-29T08:45:52;102390.91;;;18.81;64.31
26043;BME280;13818;52.156;5.382;2023-05-29T08:48:22;102388.75;;;19.03;64.48
26043;BME280;13818;52.156;5.382;2023-05-29T08:50:52;102388.00;;;19.48;63.87
26043;BME280;13818;52.156;5.382;2023-05-29T08:53:21;102379.34;;;18.29;67.73
26043;BME280;13818;52.156;5.382;2023-05-29T08:55:48;102373.94;;;17.78;69.97
26043;BME280;13818;52.156;5.382;2023-05-29T08:58:17;102387.22;;;18.00;70.19
26043;BME280;13818;52.156;5.382;2023-05-29T09:00:44;102376.88;;;18.42;68.46
26043;BME280;13818;52.156;5.382;2023-05-29T09:03:12;102377.34;;;16.92;72.52
26043;BME280;13818;52.156;5.382;2023-05-29T09:05:39;102394.19;;;17.69;71.21
26043;BME280;13818;52.156;5.382;2023-05-29T09:08:06;102395.59;;;17.59;72.75
26043;BME280;13818;52.156;5.382;2023-05-29T09:10:35;102393.13;;;17.37;73.11
26043;BME280;13818;52.156;5.382;2023-05-29T09:13:01;102390.22;;;17.59;74.09
26043;BME280;13818;52.156;5.382;2023-05-29T09:15:29;102410.53;;;16.93;77.45
26043;BME280;13818;52.156;5.382;2023-05-29T09:17:57;102377.44;;;16.13;81.83
26043;BME280;13818;52.156;5.382;2023-05-29T09:20:24;102387.53;;;16.86;83.16
26043;BME280;13818;52.156;5.382;2023-05-29T09:22:55;102389.72;;;17.68;76.91
26043;BME280;13818;52.156;5.382;2023-05-29T09:25:23;102385.47;;;17.99;73.87
26043;BME280;13818;52.156;5.382;2023-05-29T09:27:54;102410.97;;;17.57;73.52
26043;BME280;13818;52.156;5.382;2023-05-29T09:30:32;102386.09;;;17.87;71.62
26043;BME280;13818;52.156;5.382;2023-05-29T09:32:59;102381.81;;;18.34;69.58
26043;BME280;13818;52.156;5.382;2023-05-29T09:35:32;102382.63;;;18.52;69.55
26043;BME280;13818;52.156;5.382;2023-05-29T09:37:59;102384.94;;;18.26;70.72
26043;BME280;13818;52.156;5.382;2023-05-29T09:40:26;102387.19;;;17.48;76.20
26043;BME280;13818;52.156;5.382;2023-05-29T09:42:54;102387.34;;;16.89;77.22
26043;BME280;13818;52.156;5.382;2023-05-29T09:45:21;102376.03;;;17.01;78.80
26043;BME280;13818;52.156;5.382;2023-05-29T09:47:50;102375.38;;;17.50;77.44
26043;BME280;13818;52.156;5.382;2023-05-29T09:50:25;102372.84;;;17.65;78.06
26043;BME280;13818;52.156;5.382;2023-05-29T09:52:52;102380.94;;;18.00;76.71
26043;BME280;13818;52.156;5.382;2023-05-29T09:55:20;102381.19;;;17.60;77.49
26043;BME280;13818;52.156;5.382;2023-05-29T09:57:47;102379.63;;;17.19;79.93
26043;BME280;13818;52.156;5.382;2023-05-29T10:00:17;102369.19;;;17.48;79.49
26043;BME280;13818;52.156;5.382;2023-05-29T10:02:45;102381.81;;;17.83;75.65
26043;BME280;13818;52.156;5.382;2023-05-29T10:05:12;102374.97;;;17.40;78.62
26043;BME280;13818;52.156;5.382;2023-05-29T10:07:43;102381.97;;;17.62;78.36
26043;BME280;13818;52.156;5.382;2023-05-29T10:10:11;102375.63;;;17.81;77.38
26043;BME280;13818;52.156;5.382;2023-05-29T10:12:42;102371.19;;;17.97;77.16
26043;BME280;13818;52.156;5.382;2023-05-29T10:15:12;102382.69;;;17.66;77.68
26043;BME280;13818;52.156;5.382;2023-05-29T10:17:44;102373.22;;;18.10;75.94
26043;BME280;13818;52.156;5.382;2023-05-29T10:20:16;102389.31;;;17.41;74.04
26043;BME280;13818;52.156;5.382;2023-05-29T10:22:45;102370.81;;;16.98;75.04
26043;BME280;13818;52.156;5.382;2023-05-29T10:25:13;102373.97;;;17.61;73.97
26043;BME280;13818;52.156;5.382;2023-05-29T10:27:41;102359.09;;;17.17;71.97
26043;BME280;13818;52.156;5.382;2023-05-29T10:30:14;102359.22;;;16.58;76.82
26043;BME280;13818;52.156;5.382;2023-05-29T10:35:55;102366.34;;;17.34;76.67
26043;BME280;13818;52.156;5.382;2023-05-29T10:38:27;102369.44;;;17.44;74.67
26043;BME280;13818;52.156;5.382;2023-05-29T10:40:54;102351.88;;;17.87;72.72
26043;BME280;13818;52.156;5.382;2023-05-29T10:43:32;102362.28;;;17.95;72.27
26043;BME280;13818;52.156;5.382;2023-05-29T10:45:58;102351.44;;;17.79;72.38
26043;BME280;13818;52.156;5.382;2023-05-29T10:48:43;102358.72;;;17.42;73.16
26043;BME280;13818;52.156;5.382;2023-05-29T10:51:25;102356.97;;;17.76;74.63
26043;BME280;13818;52.156;5.382;2023-05-29T10:53:52;102354.56;;;17.87;74.21
26043;BME280;13818;52.156;5.382;2023-05-29T10:56:23;102354.66;;;18.03;72.52
26043;BME280;13818;52.156;5.382;2023-05-29T10:58:55;102353.16;;;17.98;72.80
26043;BME280;13818;52.156;5.382;2023-05-29T11:01:24;102351.56;;;18.11;71.42
26043;BME280;13818;52.156;5.382;2023-05-29T11:03:54;102347.06;;;17.24;70.84
26043;BME280;13818;52.156;5.382;2023-05-29T11:06:40;102360.59;;;16.86;72.40
26043;BME280;13818;52.156;5.382;2023-05-29T11:09:26;102356.16;;;16.85;73.98
26043;BME280;13818;52.156;5.382;2023-05-29T11:12:10;102360.63;;;16.84;77.02
26043;BME280;13818;52.156;5.382;2023-05-29T11:14:45;102368.00;;;17.36;73.00
26043;BME280;13818;52.156;5.382;2023-05-29T11:17:30;102348.81;;;17.43;69.98
26043;BME280;13818;52.156;5.382;2023-05-29T11:20:01;102350.50;;;17.63;70.03
26043;BME280;13818;52.156;5.382;2023-05-29T11:22:46;102354.66;;;17.33;72.86
26043;BME280;13818;52.156;5.382;2023-05-29T11:25:19;102350.31;;;17.31;72.42
26043;BME280;13818;52.156;5.382;2023-05-29T11:27:46;102352.47;;;17.77;70.75
26043;BME280;13818;52.156;5.382;2023-05-29T11:30:13;102365.06;;;17.59;71.38
26043;BME280;13818;52.156;5.382;2023-05-29T11:32:41;102367.78;;;17.04;71.54
26043;BME280;13818;52.156;5.382;2023-05-29T11:35:13;102338.41;;;16.81;71.75
26043;BME280;13818;52.156;5.382;2023-05-29T11:37:40;102343.06;;;16.77;77.42
26043;BME280;13818;52.156;5.382;2023-05-29T11:40:09;102356.56;;;17.14;75.66
26043;BME280;13818;52.156;5.382;2023-05-29T11:42:40;102340.63;;;16.90;71.87
26043;BME280;13818;52.156;5.382;2023-05-29T11:45:11;102348.13;;;17.56;71.40
26043;BME280;13818;52.156;5.382;2023-05-29T11:47:53;102347.19;;;17.91;70.21
26043;BME280;13818;52.156;5.382;2023-05-29T11:50:23;102354.97;;;18.15;65.98
26043;BME280;13818;52.156;5.382;2023-05-29T11:52:50;102347.06;;;18.28;68.20
26043;BME280;13818;52.156;5.382;2023-05-29T11:55:18;102355.94;;;18.30;69.18
26043;BME280;13818;52.156;5.382;2023-05-29T11:57:46;102354.84;;;17.65;69.58
26043;BME280;13818;52.156;5.382;2023-05-29T12:00:15;102353.53;;;18.08;68.22
26043;BME280;13818;52.156;5.382;2023-05-29T12:02:42;102349.91;;;17.56;67.41
26043;BME280;13818;52.156;5.382;2023-05-29T12:05:12;102357.84;;;17.24;70.83
26043;BME280;13818;52.156;5.382;2023-05-29T12:07:51;102350.22;;;17.50;69.71
26043;BME280;13818;52.156;5.382;2023-05-29T12:10:20;102351.22;;;17.66;66.02
26043;BME280;13818;52.156;5.382;2023-05-29T12:12:49;102348.75;;;17.44;62.99
26043;BME280;13818;52.156;5.382;2023-05-29T12:15:17;102349.44;;;17.83;63.65
26043;BME280;13818;52.156;5.382;2023-05-29T12:17:45;102344.78;;;18.20;65.23
26043;BME280;13818;52.156;5.382;2023-05-29T12:20:13;102354.56;;;17.87;68.49
26043;BME280;13818;52.156;5.382;2023-05-29T12:22:41;102340.56;;;17.81;71.23
26043;BME280;13818;52.156;5.382;2023-05-29T12:25:14;102358.56;;;17.45;72.54
26043;BME280;13818;52.156;5.382;2023-05-29T12:27:42;102355.56;;;17.34;73.62
26043;BME280;13818;52.156;5.382;2023-05-29T12:30:09;102351.59;;;17.59;71.75
26043;BME280;13818;52.156;5.382;2023-05-29T12:32:37;102343.81;;;17.70;70.37
26043;BME280;13818;52.156;5.382;2023-05-29T12:35:15;102345.84;;;17.82;70.85
26043;BME280;13818;52.156;5.382;2023-05-29T12:37:44;102341.88;;;17.89;70.42
26043;BME280;13818;52.156;5.382;2023-05-29T12:40:16;102340.84;;;17.92;70.38
26043;BME280;13818;52.156;5.382;2023-05-29T12:42:43;102337.44;;;18.06;68.14
26043;BME280;13818;52.156;5.382;2023-05-29T12:45:10;102338.56;;;17.84;66.95
26043;BME280;13818;52.156;5.382;2023-05-29T12:47:45;102325.59;;;18.09;66.86
26043;BME280;13818;52.156;5.382;2023-05-29T12:50:30;102328.59;;;18.20;65.87
26043;BME280;13818;52.156;5.382;2023-05-29T12:53:00;102331.19;;;18.21;66.80
26043;BME280;13818;52.156;5.382;2023-05-29T12:55:30;102339.28;;;18.21;67.09